createdAt,value
2023-11-12T00:00:39.079Z,1.20
2023-11-12T00:01:41.868Z,1.15
2023-11-12T00:02:44.182Z,1.20
2023-11-12T00:03:46.249Z,1.05
2023-11-12T00:04:48.815Z,1.45
2023-11-12T00:05:52.103Z,1.20
2023-11-12T00:06:54.101Z,1.38
2023-11-12T00:07:56.103Z,1.30
2023-11-12T00:08:58.921Z,1.13
2023-11-12T00:10:00.741Z,1.42
2023-11-12T00:11:02.772Z,1.60
2023-11-12T00:12:05.241Z,1.50
2023-11-12T00:14:09.347Z,1.10
2023-11-12T00:15:11.622Z,1.40
2023-11-12T00:16:13.990Z,1.02
2023-11-12T00:17:17.615Z,1.30
2023-11-12T00:18:20.216Z,1.40
2023-11-12T00:19:22.234Z,1.75
2023-11-12T00:20:26.822Z,1.50
2023-11-12T00:21:28.885Z,1.30
2023-11-12T00:22:30.847Z,1.13
2023-11-12T00:23:34.243Z,1.08
2023-11-12T00:24:36.639Z,1.13
2023-11-12T00:26:40.402Z,1.17
2023-11-12T00:27:42.250Z,1.13
2023-11-12T00:28:44.219Z,1.48
2023-11-12T00:29:46.207Z,1.65
2023-11-12T00:30:48.681Z,1.60
2023-11-12T00:32:54.527Z,1.40
2023-11-12T00:33:56.921Z,0.90
2023-11-12T00:34:58.805Z,1.00
2023-11-12T00:36:01.048Z,0.73
2023-11-12T00:37:03.429Z,0.80
2023-11-12T00:39:07.846Z,0.80
2023-11-12T00:40:12.389Z,0.95
2023-11-12T00:41:19.358Z,0.70
2023-11-12T00:42:21.439Z,0.65
2023-11-12T00:43:30.566Z,0.60
2023-11-12T00:44:32.503Z,0.65
2023-11-12T00:45:34.968Z,0.73
2023-11-12T00:46:38.058Z,0.70
2023-11-12T00:47:39.972Z,0.70
2023-11-12T00:48:41.934Z,0.88
2023-11-12T00:49:44.013Z,0.63
2023-11-12T00:50:45.993Z,0.75
2023-11-12T00:51:47.909Z,0.90
2023-11-12T00:52:49.919Z,0.80
2023-11-12T00:53:52.929Z,0.90
2023-11-12T00:54:54.788Z,0.80
2023-11-12T00:56:00.858Z,0.63
2023-11-12T00:57:02.809Z,0.70
2023-11-12T00:58:04.896Z,0.47
2023-11-12T00:59:07.178Z,1.00
2023-11-12T01:00:09.956Z,0.60
2023-11-12T01:01:12.777Z,0.60
2023-11-12T01:02:17.723Z,0.70
2023-11-12T01:03:20.010Z,0.60
2023-11-12T01:04:21.992Z,0.70
2023-11-12T01:05:23.900Z,0.50
2023-11-12T01:06:25.906Z,0.57
2023-11-12T01:07:28.391Z,0.57
2023-11-12T01:09:33.788Z,0.50
2023-11-12T01:10:35.715Z,0.70
2023-11-12T01:11:39.064Z,0.65
2023-11-12T01:12:41.026Z,0.60
2023-11-12T01:13:43.091Z,0.63
2023-11-12T01:14:44.984Z,0.80
2023-11-12T01:15:47.197Z,0.70
2023-11-12T01:16:50.018Z,0.60
2023-11-12T01:17:52.274Z,0.80
2023-11-12T01:18:54.321Z,0.90
2023-11-12T01:19:56.822Z,0.90
2023-11-12T01:20:58.779Z,0.80
2023-11-12T01:22:00.935Z,0.68
2023-11-12T01:23:03.059Z,1.08
2023-11-12T01:24:06.198Z,0.68
2023-11-12T01:25:08.914Z,0.70
2023-11-12T01:26:10.946Z,0.65
2023-11-12T01:27:13.245Z,0.40
2023-11-12T01:28:15.277Z,0.50
2023-11-12T01:29:17.317Z,0.70
2023-11-12T01:30:19.454Z,0.60
2023-11-12T01:31:21.383Z,0.75
2023-11-12T01:32:24.086Z,0.57
2023-11-12T01:33:26.499Z,0.90
2023-11-12T01:35:30.842Z,0.50
2023-11-12T01:36:32.721Z,0.60
2023-11-12T01:37:34.631Z,0.77
2023-11-12T01:38:36.595Z,0.98
2023-11-12T01:39:38.680Z,0.90
2023-11-12T01:40:42.701Z,0.77
2023-11-12T01:41:45.277Z,0.85
2023-11-12T01:42:47.739Z,0.90
2023-11-12T01:43:49.814Z,0.90
2023-11-12T01:44:51.987Z,0.68
2023-11-12T01:45:54.086Z,0.80
2023-11-12T01:46:56.156Z,0.60
2023-11-12T01:47:58.905Z,0.47
2023-11-12T01:49:01.988Z,0.63
2023-11-12T01:50:09.046Z,0.73
2023-11-12T01:51:11.610Z,0.60
2023-11-12T01:52:14.705Z,0.80
2023-11-12T01:53:17.505Z,0.70
2023-11-12T01:54:19.593Z,0.68
2023-11-12T01:55:24.788Z,0.85
2023-11-12T01:56:27.337Z,0.77
2023-11-12T01:57:30.134Z,0.60
2023-11-12T01:58:32.645Z,0.60
2023-11-12T01:59:37.231Z,0.70
2023-11-12T02:00:41.259Z,0.70
2023-11-12T02:01:43.944Z,0.70
2023-11-12T02:02:46.795Z,0.80
2023-11-12T02:03:50.666Z,0.80
2023-11-12T02:04:53.117Z,0.60
2023-11-12T02:06:57.370Z,0.80
2023-11-12T02:09:04.244Z,1.08
2023-11-12T02:10:10.829Z,0.70
2023-11-12T02:11:15.497Z,1.00
2023-11-12T02:12:17.917Z,0.93
2023-11-12T02:14:24.926Z,0.80
2023-11-12T02:15:27.150Z,0.60
2023-11-12T02:16:29.081Z,0.70
2023-11-12T02:17:33.197Z,1.05
2023-11-12T02:18:35.296Z,0.60
2023-11-12T02:19:37.720Z,0.70
2023-11-12T02:21:51.430Z,0.50
2023-11-12T02:22:53.615Z,0.63
2023-11-12T02:23:55.554Z,0.60
2023-11-12T02:24:57.802Z,0.77
2023-11-12T02:25:59.699Z,0.80
2023-11-12T02:27:02.101Z,0.70
2023-11-12T02:29:08.292Z,0.70
2023-11-12T02:30:10.573Z,0.80
2023-11-12T02:31:12.880Z,0.90
2023-11-12T02:32:14.864Z,0.70
2023-11-12T02:33:18.155Z,0.60
2023-11-12T02:34:23.254Z,0.85
2023-11-12T02:35:25.149Z,0.95
2023-11-12T02:36:27.321Z,1.08
2023-11-12T02:37:30.019Z,0.60
2023-11-12T02:38:32.703Z,1.08
2023-11-12T02:39:34.737Z,0.98
2023-11-12T02:40:36.685Z,0.68
2023-11-12T02:41:40.857Z,0.88
2023-11-12T02:42:42.809Z,0.90
2023-11-12T02:43:44.869Z,0.88
2023-11-12T02:44:47.064Z,1.10
2023-11-12T02:45:50.263Z,0.95
2023-11-12T02:46:52.306Z,1.00
2023-11-12T02:47:54.568Z,1.17
2023-11-12T02:49:09.271Z,0.95
2023-11-12T02:50:36.851Z,0.85
2023-11-12T02:51:40.152Z,0.90
2023-11-12T02:52:42.365Z,1.00
2023-11-12T02:53:44.389Z,0.85
2023-11-12T02:54:46.303Z,1.25
2023-11-12T02:55:48.248Z,0.80
2023-11-12T02:56:50.135Z,0.82
2023-11-12T02:57:52.739Z,0.90
2023-11-12T02:58:55.777Z,0.85
2023-11-12T02:59:57.805Z,1.02
2023-11-12T03:00:59.877Z,0.70
2023-11-12T03:02:02.164Z,0.70
2023-11-12T03:03:04.419Z,0.73
2023-11-12T03:04:07.852Z,0.80
2023-11-12T03:05:10.445Z,0.60
2023-11-12T03:06:13.045Z,0.60
2023-11-12T03:07:15.023Z,0.70
2023-11-12T03:08:16.922Z,0.93
2023-11-12T03:09:19.009Z,0.88
2023-11-12T03:10:22.059Z,0.50
2023-11-12T03:11:27.456Z,0.70
2023-11-12T03:12:29.729Z,0.40
2023-11-12T03:13:31.840Z,0.50
2023-11-12T03:14:34.946Z,0.57
2023-11-12T03:15:37.220Z,0.50
2023-11-12T03:16:39.471Z,0.57
2023-11-12T03:17:41.920Z,0.60
2023-11-12T03:19:51.434Z,0.60
2023-11-12T03:20:53.804Z,0.47
2023-11-12T03:22:59.079Z,0.70
2023-11-12T03:24:01.135Z,0.50
2023-11-12T03:25:06.264Z,0.85
2023-11-12T03:26:08.197Z,0.50
2023-11-12T03:27:12.127Z,0.60
2023-11-12T03:28:14.034Z,0.50
2023-11-12T03:29:15.911Z,0.60
2023-11-12T03:30:17.913Z,0.40
2023-11-12T03:31:19.906Z,0.80
2023-11-12T03:32:22.844Z,0.50
2023-11-12T03:33:24.768Z,0.60
2023-11-12T03:34:27.639Z,0.60
2023-11-12T03:35:30.554Z,0.65
2023-11-12T03:36:32.619Z,0.77
2023-11-12T03:37:34.641Z,0.80
2023-11-12T03:38:37.174Z,0.80
2023-11-12T03:39:39.187Z,0.85
2023-11-12T03:40:41.131Z,0.88
2023-11-12T03:41:43.080Z,1.17
2023-11-12T03:42:45.217Z,0.98
2023-11-12T03:43:47.553Z,0.98
2023-11-12T03:44:51.003Z,0.95
2023-11-12T03:45:53.289Z,0.88
2023-11-12T03:46:55.305Z,0.63
2023-11-12T03:47:57.305Z,0.63
2023-11-12T03:48:59.430Z,0.70
2023-11-12T03:50:01.553Z,0.40
2023-11-12T03:51:03.515Z,0.60
2023-11-12T03:52:06.505Z,0.73
2023-11-12T03:53:08.526Z,0.80
2023-11-12T03:54:12.226Z,0.57
2023-11-12T03:55:14.361Z,0.60
2023-11-12T03:56:16.280Z,0.70
2023-11-12T03:57:18.831Z,0.50
2023-11-12T03:58:20.954Z,0.30
2023-11-12T03:59:23.121Z,0.40
2023-11-12T04:00:25.732Z,0.57
2023-11-12T04:01:27.747Z,0.75
2023-11-12T04:02:29.852Z,0.40
2023-11-12T04:03:32.305Z,0.60
2023-11-12T04:04:34.380Z,0.50
2023-11-12T04:05:36.455Z,0.50
2023-11-12T04:06:38.614Z,0.80
2023-11-12T04:07:40.580Z,0.70
2023-11-12T04:08:42.421Z,0.88
2023-11-12T04:09:44.375Z,1.00
2023-11-12T04:10:47.780Z,0.93
2023-11-12T04:11:50.182Z,0.65
2023-11-12T04:12:52.338Z,0.52
2023-11-12T04:13:54.435Z,0.50
2023-11-12T04:14:56.582Z,0.65
2023-11-12T04:15:58.564Z,0.90
2023-11-12T04:17:01.077Z,1.20
2023-11-12T04:19:05.329Z,2.08
2023-11-12T04:20:09.966Z,3.22
2023-11-12T04:21:15.256Z,2.55
2023-11-12T04:22:17.188Z,2.15
2023-11-12T04:23:19.248Z,1.27
2023-11-12T04:24:21.177Z,1.15
2023-11-12T04:25:23.168Z,1.10
2023-11-12T04:26:26.118Z,1.25
2023-11-12T04:27:28.240Z,1.13
2023-11-12T04:28:30.599Z,1.42
2023-11-12T04:30:35.324Z,1.30
2023-11-12T04:31:38.159Z,0.90
2023-11-12T04:32:40.281Z,0.98
2023-11-12T04:33:42.323Z,1.40
2023-11-12T04:34:48.032Z,1.42
2023-11-12T04:35:51.423Z,1.60
2023-11-12T04:36:53.653Z,1.35
2023-11-12T04:37:55.618Z,1.40
2023-11-12T04:39:00.649Z,0.95
2023-11-12T04:40:05.198Z,1.00
2023-11-12T04:41:08.038Z,0.90
2023-11-12T04:42:10.038Z,1.17
2023-11-12T04:43:13.819Z,1.15
2023-11-12T04:44:15.900Z,0.80
2023-11-12T04:45:21.311Z,1.17
2023-11-12T04:46:24.401Z,0.70
2023-11-12T04:47:26.815Z,0.47
2023-11-12T04:49:30.590Z,0.60
2023-11-12T04:50:32.606Z,0.88
2023-11-12T04:51:34.910Z,0.60
2023-11-12T04:52:37.002Z,0.55
2023-11-12T04:53:39.686Z,0.40
2023-11-12T04:55:43.557Z,0.43
2023-11-12T04:56:48.585Z,0.52
2023-11-12T04:57:50.874Z,0.80
2023-11-12T04:58:54.204Z,0.70
2023-11-12T04:59:56.800Z,0.85
2023-11-12T05:00:59.231Z,0.60
2023-11-12T05:02:01.531Z,0.90
2023-11-12T05:03:06.123Z,0.80
2023-11-12T05:04:08.557Z,0.77
2023-11-12T05:21:45.978Z,0.32
2023-11-12T05:22:48.181Z,0.50
2023-11-12T05:23:50.159Z,0.98
2023-11-12T05:24:52.867Z,0.70
2023-11-12T05:25:56.463Z,0.70
2023-11-12T05:26:58.333Z,0.93
2023-11-12T05:28:00.812Z,1.27
2023-11-12T05:30:05.575Z,1.30
2023-11-12T05:31:07.590Z,1.15
2023-11-12T05:32:09.901Z,1.23
2023-11-12T05:33:11.828Z,1.10
2023-11-12T05:34:14.657Z,1.55
2023-11-12T05:35:17.142Z,1.88
2023-11-12T05:36:19.277Z,1.20
2023-11-12T05:37:21.294Z,1.00
2023-11-12T05:38:23.433Z,1.50
2023-11-12T05:39:25.543Z,1.88
2023-11-12T05:40:27.551Z,2.63
2023-11-12T05:41:30.220Z,2.00
2023-11-12T05:42:32.087Z,1.50
2023-11-12T05:43:34.077Z,1.40
2023-11-12T05:44:36.100Z,1.45
2023-11-12T05:45:38.221Z,2.28
2023-11-12T05:46:40.527Z,1.50
2023-11-12T05:47:42.660Z,1.33
2023-11-12T05:48:44.686Z,1.40
2023-11-12T10:19:31.973Z,0.70
2023-11-12T10:20:40.436Z,0.55
2023-11-12T10:21:57.887Z,0.40
2023-11-12T10:23:03.786Z,0.60
2023-11-12T10:24:06.842Z,0.57
2023-11-12T10:25:09.102Z,0.45
2023-11-12T10:26:16.384Z,0.47
2023-11-12T10:27:18.378Z,0.50
2023-11-12T10:28:20.901Z,0.30
2023-11-12T10:29:24.498Z,0.45
2023-11-12T10:30:28.754Z,0.50
2023-11-12T10:31:39.385Z,0.80
2023-11-12T10:32:41.665Z,0.60
2023-11-12T10:34:01.183Z,0.52
2023-11-12T10:35:03.765Z,0.40
2023-11-12T10:36:11.104Z,0.55
2023-11-12T10:37:16.139Z,0.30
2023-11-12T10:38:19.259Z,0.55
2023-11-12T10:39:22.046Z,0.50
2023-11-12T10:56:23.163Z,0.50
2023-11-12T10:57:25.892Z,0.60
2023-11-12T10:58:34.182Z,0.40
2023-11-12T10:59:38.950Z,0.40
2023-11-12T11:00:42.178Z,0.50
2023-11-12T11:01:44.323Z,0.40
2023-11-12T11:02:49.031Z,0.47
2023-11-12T11:03:52.898Z,0.60
2023-11-12T11:04:56.547Z,0.40
2023-11-12T11:06:08.037Z,0.60
2023-11-12T11:07:09.988Z,0.40
2023-11-12T11:08:13.430Z,0.60
2023-11-12T11:09:15.655Z,0.50
2023-11-12T11:10:18.075Z,0.50
2023-11-12T11:12:23.771Z,0.43
2023-11-12T11:13:27.128Z,0.80
2023-11-12T11:14:29.369Z,0.70
2023-11-12T11:15:49.306Z,0.60
2023-11-12T11:16:54.369Z,0.57
2023-11-12T11:17:56.356Z,0.57
2023-11-12T11:18:58.376Z,0.63
2023-11-12T11:20:02.290Z,0.65
2023-11-12T11:21:04.537Z,0.60
2023-11-12T11:22:28.112Z,0.50
2023-11-12T11:23:43.625Z,0.50
2023-11-12T11:24:46.916Z,0.50
2023-11-12T11:25:49.377Z,0.57
2023-11-12T11:26:54.362Z,0.40
2023-11-12T11:28:19.103Z,0.40
2023-11-12T11:29:21.192Z,0.43
2023-11-12T11:30:24.860Z,0.40
2023-11-12T11:31:26.791Z,0.35
2023-11-12T15:02:51.032Z,0.80
2023-11-12T15:03:54.987Z,1.63
2023-11-12T15:04:56.989Z,1.17
2023-11-12T15:05:58.931Z,0.60
2023-11-12T15:07:00.925Z,0.50
2023-11-12T15:08:03.061Z,0.40
2023-11-12T15:09:09.247Z,0.40
2023-11-12T15:10:11.778Z,0.40
2023-11-12T15:11:14.086Z,0.68
2023-11-12T15:12:16.992Z,1.13
2023-11-12T15:13:20.050Z,0.52
2023-11-12T15:14:25.420Z,1.45
2023-11-12T15:15:27.530Z,1.02
2023-11-12T15:16:30.744Z,0.75
2023-11-12T15:17:33.751Z,0.77
2023-11-12T15:18:36.451Z,0.80
2023-11-12T15:19:40.905Z,0.93
2023-11-12T15:20:45.244Z,0.60
2023-11-12T15:21:47.577Z,0.57
2023-11-12T15:22:52.186Z,0.60
2023-11-12T15:23:54.855Z,1.25
2023-11-12T15:24:57.650Z,1.75
2023-11-12T15:25:59.969Z,1.20
2023-11-12T15:28:04.078Z,0.82
2023-11-12T15:30:12.265Z,0.65
2023-11-12T15:31:14.417Z,0.50
2023-11-12T15:32:17.010Z,1.10
2023-11-12T15:33:19.398Z,1.10
2023-11-12T15:35:24.559Z,1.73
2023-11-12T15:36:26.613Z,1.57
2023-11-12T15:37:28.880Z,1.10
2023-11-12T15:39:33.601Z,1.20
2023-11-12T15:40:37.430Z,0.40
2023-11-12T15:41:40.336Z,0.20
2023-11-12T15:42:44.737Z,0.27
2023-11-12T15:43:46.760Z,0.25
2023-11-12T15:44:51.157Z,0.40
2023-11-12T16:00:34.243Z,0.98
2023-11-12T16:05:46.121Z,0.50
2023-11-12T16:06:48.162Z,0.47
2023-11-12T16:07:50.697Z,0.30
2023-11-12T16:08:56.374Z,0.30
2023-11-12T16:09:59.316Z,0.20
2023-11-12T16:11:01.489Z,0.32
2023-11-12T16:12:03.754Z,0.20
2023-11-12T16:13:06.018Z,0.20
2023-11-12T16:14:07.917Z,0.60
2023-11-12T16:15:14.491Z,0.40
2023-11-12T16:16:17.172Z,0.45
2023-11-12T16:17:19.488Z,0.65
2023-11-12T16:18:21.826Z,1.10
2023-11-12T16:20:27.462Z,4.28
2023-11-12T16:21:30.103Z,4.65
2023-11-12T16:22:34.722Z,4.43
2023-11-12T16:23:37.647Z,3.65
2023-11-12T16:24:41.241Z,3.15
2023-11-12T16:25:43.686Z,2.80
2023-11-12T16:27:48.550Z,3.55
2023-11-12T16:28:51.046Z,3.13
2023-11-12T16:30:55.560Z,3.22
2023-11-12T16:32:12.637Z,2.90
2023-11-12T16:33:15.701Z,2.60
2023-11-12T16:34:18.657Z,2.10
2023-11-12T16:35:22.595Z,2.25
2023-11-12T16:36:25.264Z,2.17
2023-11-12T16:37:28.197Z,2.67
2023-11-12T16:38:37.262Z,2.70
2023-11-12T16:39:46.241Z,3.10
2023-11-12T16:40:50.389Z,3.35
2023-11-12T16:41:53.141Z,1.88
2023-11-12T16:42:57.200Z,1.75
2023-11-12T16:43:59.810Z,1.55
2023-11-12T16:45:03.318Z,1.45
2023-11-12T16:46:05.844Z,1.90
2023-11-12T16:47:10.165Z,2.25
2023-11-12T16:48:13.430Z,1.88
2023-11-12T16:49:17.125Z,1.70
2023-11-12T16:50:19.836Z,1.40
2023-11-12T16:51:22.478Z,1.00
2023-11-12T16:52:25.239Z,1.15
2023-11-12T16:53:28.407Z,1.20
2023-11-12T16:54:31.486Z,1.00
2023-11-12T16:55:34.147Z,1.10
2023-11-12T16:56:37.742Z,1.30
2023-11-12T16:57:40.875Z,0.85
2023-11-12T16:58:44.338Z,1.00
2023-11-12T16:59:47.298Z,1.10
2023-11-12T17:00:54.442Z,0.73
2023-11-12T17:01:58.068Z,1.00
2023-11-12T17:03:01.360Z,1.17
2023-11-12T17:04:04.224Z,0.90
2023-11-12T17:05:07.607Z,0.88
2023-11-12T17:06:11.038Z,1.48
2023-11-12T17:07:14.299Z,1.00
2023-11-12T17:08:17.471Z,1.48
2023-11-12T17:09:20.659Z,1.15
2023-11-12T17:10:24.097Z,18.58
2023-11-12T17:11:26.999Z,36.08
2023-11-12T17:12:30.242Z,73.20
2023-11-12T17:13:35.049Z,13.90
2023-11-12T17:14:38.332Z,9.88
2023-11-12T17:15:41.599Z,10.15
2023-11-12T17:16:48.961Z,10.18
2023-11-12T17:17:52.066Z,9.85
2023-11-12T17:18:55.206Z,12.05
2023-11-12T17:19:57.920Z,11.68
2023-11-12T17:21:01.344Z,14.57
2023-11-12T17:22:04.460Z,14.20
2023-11-12T17:23:07.288Z,13.70
2023-11-12T17:24:10.625Z,11.00
2023-11-12T17:25:13.720Z,9.00
2023-11-12T17:26:17.362Z,7.38
2023-11-12T17:27:21.017Z,7.10
2023-11-12T17:28:25.639Z,5.75
2023-11-12T17:29:28.886Z,5.63
2023-11-12T17:30:31.575Z,5.95
2023-11-12T17:31:35.960Z,8.70
2023-11-12T17:32:39.580Z,8.38
2023-11-12T17:33:43.632Z,6.10
2023-11-12T17:34:46.343Z,5.05
2023-11-12T17:35:48.992Z,3.20
2023-11-12T17:36:52.236Z,2.78
2023-11-12T17:37:55.825Z,2.35
2023-11-12T17:39:02.659Z,2.28
2023-11-12T17:40:05.934Z,2.20
2023-11-12T17:41:09.703Z,2.33
2023-11-12T17:42:13.186Z,2.50
2023-11-12T17:43:16.565Z,2.50
2023-11-12T17:44:19.653Z,2.58
2023-11-12T17:45:23.003Z,2.85
2023-11-12T17:46:25.901Z,3.28
2023-11-12T17:47:29.693Z,3.13
2023-11-12T17:48:33.122Z,3.08
2023-11-12T17:49:36.180Z,2.67
2023-11-12T17:50:39.390Z,3.13
2023-11-12T17:51:47.786Z,3.40
2023-11-12T17:52:50.847Z,2.72
2023-11-12T18:05:41.454Z,1.40
2023-11-12T18:06:47.133Z,1.40
2023-11-12T18:07:52.108Z,1.77
2023-11-12T18:08:55.723Z,1.90
2023-11-12T18:09:58.611Z,1.58
2023-11-12T18:11:02.723Z,1.40
2023-11-12T18:12:06.524Z,0.95
2023-11-12T18:13:10.475Z,1.17
2023-11-12T18:14:16.834Z,1.13
2023-11-12T18:15:20.969Z,1.50
2023-11-12T18:16:23.951Z,1.63
2023-11-12T18:17:27.544Z,2.00
2023-11-12T18:18:30.775Z,1.90
2023-11-12T18:19:34.156Z,1.50
2023-11-12T19:51:01.130Z,2.38
2023-11-12T19:52:06.500Z,2.17
2023-11-12T19:53:10.063Z,1.85
2023-11-12T19:54:21.773Z,1.95
2023-11-12T19:55:29.131Z,2.33
2023-11-12T19:56:32.774Z,1.80
2023-11-12T19:57:35.841Z,2.08
2023-11-12T19:58:39.727Z,1.90
2023-11-12T19:59:42.813Z,1.95
2023-11-12T20:00:48.421Z,1.80
2023-11-12T20:01:52.583Z,2.00
2023-11-12T20:02:56.943Z,1.77
2023-11-12T20:04:01.495Z,1.65
2023-11-12T20:05:08.733Z,2.08
2023-11-12T20:06:14.786Z,1.50
2023-11-12T20:07:20.979Z,1.85
2023-11-12T20:08:24.271Z,1.50
2023-11-12T20:09:27.998Z,1.70
2023-11-12T20:10:31.386Z,2.00
2023-11-12T20:11:35.449Z,2.10
2023-11-12T20:12:40.335Z,2.95
2023-11-12T20:13:45.565Z,2.30
2023-11-12T20:14:50.826Z,3.38
2023-11-12T20:15:55.939Z,2.25
2023-11-12T20:17:02.712Z,2.65
2023-11-12T20:18:11.060Z,3.35
2023-11-12T20:19:37.411Z,4.07
2023-11-12T20:20:41.280Z,3.38
2023-11-12T20:21:48.132Z,3.85
2023-11-12T20:22:53.720Z,2.85
2023-11-12T20:23:59.139Z,3.05
2023-11-12T20:25:09.457Z,2.03
2023-11-12T20:26:12.767Z,1.90
2023-11-12T20:27:17.342Z,3.00
2023-11-12T20:28:22.632Z,2.08
2023-11-12T20:29:27.964Z,2.30
2023-11-12T20:30:35.642Z,2.13
2023-11-12T20:31:39.130Z,1.98
2023-11-12T20:32:42.674Z,1.88
2023-11-12T20:33:45.996Z,2.00
2023-11-12T20:34:52.405Z,1.80
2023-11-12T20:36:01.618Z,1.60
2023-11-12T20:37:04.831Z,1.90
2023-11-12T20:38:13.159Z,1.58
2023-11-12T20:39:18.959Z,1.83
2023-11-12T20:40:23.004Z,1.90
2023-11-12T20:41:28.244Z,3.05
2023-11-12T20:42:31.861Z,1.60
2023-11-12T20:43:36.539Z,1.63
2023-11-12T20:44:42.971Z,1.65
2023-11-12T20:45:46.527Z,1.35
2023-11-12T20:46:50.045Z,1.42
2023-11-12T20:47:56.929Z,1.83
2023-11-12T20:49:01.074Z,2.20
2023-11-12T20:50:06.417Z,1.55
2023-11-12T20:51:09.834Z,2.40
2023-11-12T20:52:13.296Z,2.25
2023-11-12T20:53:17.826Z,2.30
2023-11-12T20:54:21.435Z,2.25
2023-11-12T20:55:26.956Z,2.20
2023-11-12T20:56:30.621Z,2.22
2023-11-12T20:57:34.329Z,1.90
2023-11-12T20:58:37.695Z,1.85
2023-11-12T20:59:40.814Z,2.30
2023-11-12T21:00:44.865Z,1.60
2023-11-12T21:01:47.376Z,1.85
2023-11-12T21:02:50.728Z,2.53
2023-11-12T21:03:52.793Z,2.00
2023-11-12T21:04:54.895Z,2.28
2023-11-12T21:05:57.018Z,1.92
2023-11-12T21:06:59.732Z,2.20
2023-11-12T21:08:02.004Z,2.35
2023-11-12T21:09:04.954Z,2.42
2023-11-12T21:10:08.905Z,2.15
2023-11-12T21:11:16.933Z,1.70
2023-11-12T21:12:22.914Z,1.80
2023-11-12T21:13:25.269Z,1.80
2023-11-12T21:15:30.589Z,1.70
2023-11-12T21:16:33.237Z,1.90
2023-11-12T21:17:35.658Z,2.35
2023-11-12T21:19:40.325Z,2.83
2023-11-12T21:20:42.714Z,2.90
2023-11-12T21:22:51.046Z,3.10
2023-11-12T21:23:53.136Z,2.85
2023-11-12T21:24:55.161Z,3.53
2023-11-12T21:25:57.271Z,2.75
2023-11-12T21:26:59.226Z,2.60
2023-11-12T21:28:02.770Z,2.78
2023-11-12T21:29:04.767Z,2.40
2023-11-12T21:30:07.529Z,2.33
2023-11-12T21:31:11.950Z,2.15
2023-11-12T21:32:15.159Z,3.03
2023-11-12T21:33:17.859Z,2.67
2023-11-12T21:34:19.899Z,2.60
2023-11-12T21:35:21.969Z,2.20
2023-11-12T21:36:24.170Z,2.33
2023-11-12T21:37:27.336Z,2.47
2023-11-12T21:38:29.234Z,2.50
2023-11-12T21:39:31.163Z,2.38
2023-11-12T21:40:33.075Z,2.28
2023-11-12T21:41:35.100Z,2.22
2023-11-12T21:42:37.045Z,1.90
2023-11-12T21:43:39.098Z,2.17
2023-11-12T21:44:41.142Z,1.90
2023-11-12T21:45:45.310Z,1.75
2023-11-12T21:46:47.358Z,2.05
2023-11-12T21:47:49.526Z,2.72
2023-11-12T21:48:54.534Z,2.60
2023-11-12T21:49:56.719Z,2.30
2023-11-12T21:51:00.619Z,2.65
2023-11-12T21:52:03.501Z,2.72
2023-11-12T21:53:05.718Z,2.17
2023-11-12T21:54:08.330Z,1.77
2023-11-12T21:55:10.428Z,2.35
2023-11-12T21:56:14.234Z,1.60
2023-11-12T21:57:17.832Z,2.05
2023-11-12T21:58:20.523Z,2.15
2023-11-12T21:59:23.462Z,2.00
2023-11-12T22:00:28.067Z,1.80
2023-11-12T22:01:30.483Z,1.40
2023-11-12T22:02:32.587Z,1.50
2023-11-12T22:03:38.357Z,1.73
2023-11-12T22:04:40.428Z,1.70
2023-11-12T22:05:45.192Z,2.10
2023-11-12T22:06:48.498Z,1.70
2023-11-12T22:07:51.734Z,1.95
2023-11-12T22:08:54.007Z,1.70
2023-11-12T22:09:56.165Z,1.50
2023-11-12T22:10:58.247Z,1.90
2023-11-12T22:12:00.254Z,1.73
2023-11-12T22:13:03.214Z,1.70
2023-11-12T22:14:05.164Z,1.88
2023-11-12T22:15:08.277Z,1.85
2023-11-12T22:16:10.301Z,1.63
2023-11-12T22:17:13.039Z,2.10
2023-11-12T22:18:15.254Z,1.73
2023-11-12T22:19:17.309Z,2.40
2023-11-12T22:20:19.710Z,2.50
2023-11-12T22:22:23.714Z,1.95
2023-11-12T22:23:26.129Z,2.17
2023-11-12T22:25:32.003Z,1.80
2023-11-12T22:26:37.604Z,1.85
2023-11-12T22:27:50.656Z,2.03
2023-11-12T22:29:55.053Z,1.48
2023-11-12T22:30:57.058Z,3.35
2023-11-12T22:31:59.321Z,3.67
2023-11-12T22:33:01.429Z,3.28
2023-11-12T22:34:05.362Z,2.47
2023-11-12T22:35:09.780Z,2.13
2023-11-12T22:36:13.881Z,2.30
2023-11-12T22:37:15.918Z,2.08
2023-11-12T22:38:18.656Z,1.42
2023-11-12T22:39:20.618Z,1.65
2023-11-12T22:40:24.767Z,1.70
2023-11-12T22:41:26.883Z,1.33
2023-11-12T22:42:28.915Z,1.23
2023-11-12T22:43:31.064Z,1.58
2023-11-12T22:44:32.994Z,1.00
2023-11-12T22:45:35.417Z,1.10
2023-11-12T22:47:41.269Z,0.65
2023-11-12T22:48:43.552Z,0.60
2023-11-12T22:49:45.602Z,0.60
2023-11-12T22:50:47.601Z,0.60
2023-11-12T22:51:49.602Z,0.90
2023-11-12T22:52:51.549Z,0.80
2023-11-12T22:53:53.676Z,0.90
2023-11-12T22:54:55.652Z,0.80
2023-11-12T22:55:57.859Z,0.82
2023-11-12T22:56:59.784Z,1.10
2023-11-12T22:58:01.864Z,0.95
2023-11-12T22:59:05.378Z,0.80
2023-11-12T23:00:17.753Z,1.17
2023-11-12T23:01:21.782Z,0.95
2023-11-12T23:02:26.043Z,1.00
2023-11-12T23:03:29.401Z,1.13
2023-11-12T23:04:33.046Z,1.60
2023-11-12T23:06:38.064Z,1.63
2023-11-12T23:07:41.532Z,1.70
2023-11-12T23:08:44.825Z,1.77
2023-11-12T23:09:47.042Z,1.98
2023-11-12T23:10:50.504Z,1.25
2023-11-12T23:11:52.358Z,1.10
2023-11-12T23:12:54.418Z,1.17
2023-11-12T23:13:56.360Z,1.00
2023-11-12T23:14:58.388Z,0.95
2023-11-12T23:16:01.438Z,0.80
2023-11-12T23:17:06.537Z,0.63
2023-11-12T23:18:08.741Z,0.57
2023-11-12T23:19:10.710Z,0.77
2023-11-12T23:20:14.472Z,0.88
2023-11-12T23:21:16.371Z,0.70
2023-11-12T23:22:18.691Z,0.82
2023-11-12T23:23:23.939Z,0.60
2023-11-12T23:24:25.889Z,0.98
2023-11-12T23:25:27.854Z,0.75
2023-11-12T23:26:29.834Z,0.98
2023-11-12T23:27:31.792Z,0.80
2023-11-12T23:28:33.814Z,0.90
2023-11-12T23:29:36.873Z,0.73
2023-11-12T23:30:40.550Z,0.77
2023-11-12T23:31:43.157Z,1.20
2023-11-12T23:32:45.114Z,0.90
2023-11-12T23:33:47.641Z,1.42
2023-11-12T23:35:51.540Z,0.73
2023-11-12T23:36:53.458Z,0.90
2023-11-12T23:37:55.422Z,0.95
2023-11-12T23:38:57.719Z,1.08
2023-11-12T23:39:59.950Z,1.10
2023-11-12T23:41:03.202Z,1.00
2023-11-12T23:42:05.600Z,1.00
2023-11-12T23:44:09.434Z,0.80
2023-11-12T23:45:12.664Z,0.75
2023-11-12T23:46:15.178Z,0.88
2023-11-12T23:47:17.190Z,0.63
2023-11-12T23:48:19.283Z,0.77
2023-11-12T23:49:21.468Z,0.70
2023-11-12T23:50:25.937Z,0.60
2023-11-12T23:51:29.394Z,0.50
2023-11-12T23:52:32.813Z,0.50
2023-11-12T23:53:35.351Z,0.70
2023-11-12T23:54:37.328Z,0.70
2023-11-12T23:55:39.176Z,0.75
2023-11-12T23:56:41.241Z,0.70
2023-11-12T23:57:43.447Z,0.70
2023-11-12T23:58:45.763Z,0.65
2023-11-12T23:59:49.153Z,0.52
